createdAt,value
2023-01-02T00:01:47.606Z,101577.78
2023-01-02T00:06:49.787Z,101587.22
2023-01-02T00:11:51.921Z,101576.16
2023-01-02T00:16:54.067Z,101572.25
2023-01-02T00:21:56.178Z,101579.00
2023-01-02T00:26:58.287Z,101581.31
2023-01-02T00:32:00.486Z,101575.06
2023-01-02T00:37:02.645Z,101570.22
2023-01-02T00:42:05.053Z,101585.59
2023-01-02T00:47:07.295Z,101582.03
2023-01-02T00:52:09.553Z,101580.97
2023-01-02T00:57:11.693Z,101591.59
2023-01-02T01:02:13.947Z,101590.53
2023-01-02T01:07:16.264Z,101591.31
2023-01-02T01:12:18.424Z,101588.91
2023-01-02T01:17:20.537Z,101578.78
2023-01-02T01:22:22.626Z,101567.88
2023-01-02T01:27:24.819Z,101575.09
2023-01-02T01:32:28.942Z,101572.56
2023-01-02T01:37:31.110Z,101579.34
2023-01-02T01:42:34.680Z,101570.13
2023-01-02T01:47:36.773Z,101552.63
2023-01-02T01:52:47.079Z,101544.22
2023-01-02T01:57:58.704Z,101530.81
2023-01-02T02:03:06.942Z,101525.84
2023-01-02T02:08:40.288Z,101525.50
2023-01-02T02:13:42.866Z,101524.78
2023-01-02T02:18:47.920Z,101511.84
2023-01-02T02:24:19.539Z,101504.56
2023-01-02T02:29:43.086Z,101494.56
2023-01-02T02:35:15.267Z,101506.12
2023-01-02T02:40:37.994Z,101497.78
2023-01-02T02:46:08.324Z,101485.28
2023-01-02T02:51:21.207Z,101492.66
2023-01-02T02:56:27.524Z,101493.84
2023-01-02T03:01:31.665Z,101505.41
2023-01-02T03:06:45.727Z,101491.47
2023-01-02T03:12:14.416Z,101489.09
2023-01-02T03:17:24.342Z,101498.75
2023-01-02T03:22:31.914Z,101500.91
2023-01-02T03:27:39.091Z,101480.63
2023-01-02T03:33:08.388Z,101491.47
2023-01-02T03:38:16.256Z,101479.34
2023-01-02T03:43:23.758Z,101470.63
2023-01-02T03:48:35.651Z,101487.56
2023-01-02T03:53:40.506Z,101487.09
2023-01-02T03:59:06.774Z,101479.44
2023-01-02T04:04:18.749Z,101481.37
2023-01-02T04:09:24.376Z,101492.59
2023-01-02T04:14:48.802Z,101488.41
2023-01-02T04:19:55.960Z,101486.72
2023-01-02T04:25:19.143Z,101485.06
2023-01-02T04:30:21.634Z,101494.94
2023-01-02T04:35:25.005Z,101483.25
2023-01-02T04:40:31.218Z,101503.63
2023-01-02T04:45:33.383Z,101503.88
2023-01-02T04:50:35.548Z,101498.75
2023-01-02T04:55:38.675Z,101506.16
2023-01-02T05:00:40.870Z,101496.25
2023-01-02T05:05:44.546Z,101497.53
2023-01-02T05:10:46.731Z,101505.53
2023-01-02T05:15:56.496Z,101511.97
2023-01-02T05:21:29.079Z,101494.56
2023-01-02T05:26:33.172Z,101492.31
2023-01-02T05:31:35.481Z,101502.22
2023-01-02T05:36:37.680Z,101494.66
2023-01-02T05:41:42.861Z,101494.22
2023-01-02T05:46:45.086Z,101499.81
2023-01-02T05:51:47.300Z,101501.25
2023-01-02T05:56:49.631Z,101501.09
2023-01-02T06:01:51.859Z,101504.69
2023-01-02T06:06:54.046Z,101501.59
2023-01-02T06:11:56.351Z,101495.63
2023-01-02T06:16:58.532Z,101496.94
2023-01-02T06:22:00.738Z,101491.69
2023-01-02T06:27:02.897Z,101484.19
2023-01-02T06:32:05.510Z,101496.34
2023-01-02T06:37:09.927Z,101497.78
2023-01-02T06:42:13.221Z,101494.56
2023-01-02T06:47:15.396Z,101492.44
2023-01-02T06:52:17.578Z,101494.22
2023-01-02T06:57:19.809Z,101500.66
2023-01-02T07:02:22.070Z,101497.69
2023-01-02T07:07:24.357Z,101497.09
2023-01-02T07:12:26.512Z,101508.16
2023-01-02T07:17:28.709Z,101507.44
2023-01-02T07:22:30.937Z,101515.66
2023-01-02T07:27:33.426Z,101532.72
2023-01-02T07:32:35.663Z,101527.16
2023-01-02T07:37:42.882Z,101535.28
2023-01-02T07:42:45.205Z,101518.47
2023-01-02T07:47:47.427Z,101526.44
2023-01-02T07:52:49.655Z,101527.28
2023-01-02T07:57:51.853Z,101526.53
2023-01-02T08:02:55.184Z,101534.50
2023-01-02T08:07:57.479Z,101529.97
2023-01-02T08:13:00.825Z,101520.50
2023-01-02T08:18:03.054Z,101527.66
2023-01-02T08:23:05.364Z,101513.22
2023-01-02T08:28:10.053Z,101522.66
2023-01-02T08:33:12.224Z,101522.09
2023-01-02T08:38:14.678Z,101518.53
2023-01-02T08:43:18.659Z,101528.31
2023-01-02T08:48:21.816Z,101532.91
2023-01-02T08:53:24.203Z,101526.66
2023-01-02T08:58:26.649Z,101538.19
2023-01-02T09:03:29.077Z,101536.56
2023-01-02T09:08:31.738Z,101534.06
2023-01-02T09:13:34.243Z,101528.31
2023-01-02T09:18:38.270Z,101512.38
2023-01-02T09:23:40.554Z,101536.25
2023-01-02T09:28:42.870Z,101527.88
2023-01-02T09:33:47.748Z,101523.44
2023-01-02T09:38:57.609Z,101512.84
2023-01-02T09:44:08.438Z,101504.13
2023-01-02T09:49:23.049Z,101495.81
2023-01-02T09:54:29.019Z,101488.56
2023-01-02T09:59:59.674Z,101488.44
2023-01-02T10:05:30.585Z,101478.38
2023-01-02T10:10:35.652Z,101467.16
2023-01-02T10:15:42.544Z,101464.34
2023-01-02T10:20:49.036Z,101463.53
2023-01-02T10:26:16.464Z,101465.16
2023-01-02T10:31:29.693Z,101455.97
2023-01-02T10:36:36.307Z,101447.78
2023-01-02T10:41:40.070Z,101437.69
2023-01-02T10:46:42.518Z,101432.31
2023-01-02T10:52:03.036Z,101424.06
2023-01-02T10:57:20.710Z,101421.38
2023-01-02T11:02:36.846Z,101407.09
2023-01-02T11:07:40.028Z,101401.12
2023-01-02T11:12:50.045Z,101402.63
2023-01-02T11:17:52.504Z,101400.09
2023-01-02T11:22:57.482Z,101383.25
2023-01-02T11:28:01.027Z,101387.56
2023-01-02T11:33:10.972Z,101357.22
2023-01-02T11:38:29.801Z,101374.91
2023-01-02T11:43:52.665Z,101352.03
2023-01-02T11:49:00.946Z,101353.22
2023-01-02T11:54:10.899Z,101345.03
2023-01-02T11:59:47.973Z,101326.47
2023-01-02T12:04:50.277Z,101324.47
2023-01-02T12:10:14.190Z,101327.59
2023-01-02T12:15:42.458Z,101336.62
2023-01-02T12:21:24.567Z,101330.94
2023-01-02T12:26:59.813Z,101322.97
2023-01-02T12:32:20.648Z,101323.53
2023-01-02T12:37:29.097Z,101305.16
2023-01-02T12:43:05.721Z,101307.44
2023-01-02T12:48:40.199Z,101298.41
2023-01-02T12:53:42.383Z,101297.34
2023-01-02T12:59:00.459Z,101288.44
2023-01-02T13:04:24.251Z,101295.84
2023-01-02T13:09:41.985Z,101287.87
2023-01-02T13:14:54.030Z,101276.59
2023-01-02T13:20:28.284Z,101295.41
2023-01-02T13:25:32.823Z,101298.66
2023-01-02T13:30:34.997Z,101287.16
2023-01-02T13:35:38.779Z,101284.44
2023-01-02T13:40:41.568Z,101282.31
2023-01-02T13:45:51.022Z,101293.09
2023-01-02T13:51:05.923Z,101291.91
2023-01-02T13:56:23.638Z,101288.72
2023-01-02T14:01:59.778Z,101284.44
2023-01-02T14:07:25.304Z,101296.47
2023-01-02T14:12:28.195Z,101305.09
2023-01-02T14:17:45.602Z,101303.75
2023-01-02T14:22:53.932Z,101305.56
2023-01-02T14:27:57.215Z,101303.84
2023-01-02T14:33:01.537Z,101303.84
2023-01-02T14:38:11.722Z,101303.38
2023-01-02T14:43:41.860Z,101311.56
2023-01-02T14:48:49.998Z,101307.28
2023-01-02T14:53:59.387Z,101307.53
2023-01-02T14:59:03.669Z,101295.16
2023-01-02T15:04:19.004Z,101307.03
2023-01-02T15:09:31.481Z,101299.19
2023-01-02T15:14:33.902Z,101306.22
2023-01-02T15:19:38.527Z,101305.09
2023-01-02T15:24:50.384Z,101288.84
2023-01-02T15:29:56.041Z,101299.69
2023-01-02T15:35:21.197Z,101300.06
2023-01-02T15:40:24.394Z,101308.13
2023-01-02T15:45:27.601Z,101313.12
2023-01-02T15:50:31.327Z,101296.56
2023-01-02T15:55:37.554Z,101310.31
2023-01-02T16:00:40.302Z,101292.72
2023-01-02T16:05:54.232Z,101314.56
2023-01-02T16:11:02.419Z,101312.97
2023-01-02T16:16:15.702Z,101283.84
2023-01-02T16:21:19.520Z,101323.28
2023-01-02T16:26:32.364Z,101326.28
2023-01-02T16:31:55.712Z,101318.72
2023-01-02T16:37:37.142Z,101328.37
2023-01-02T16:42:41.358Z,101337.28
2023-01-02T16:47:44.314Z,101326.94
2023-01-02T16:52:47.130Z,101339.84
2023-01-02T16:57:50.658Z,101324.59
2023-01-02T17:02:52.996Z,101323.34
2023-01-02T17:07:55.546Z,101345.63
2023-01-02T17:12:57.786Z,101350.41
2023-01-02T17:18:00.113Z,101351.84
2023-01-02T17:23:03.023Z,101358.25
2023-01-02T17:28:05.378Z,101336.41
2023-01-02T17:33:07.845Z,101339.66
2023-01-02T17:38:10.098Z,101355.00
2023-01-02T17:48:33.001Z,101356.31
2023-01-02T17:53:36.276Z,101358.84
2023-01-02T17:58:38.523Z,101355.44
2023-01-02T18:03:40.705Z,101343.16
2023-01-02T18:08:43.499Z,101340.78
2023-01-02T18:13:48.875Z,101339.94
2023-01-02T18:18:51.488Z,101342.56
2023-01-02T18:23:58.619Z,101347.09
2023-01-02T18:29:09.418Z,101342.97
2023-01-02T18:34:45.751Z,101350.44
2023-01-02T18:39:42.674Z,101349.19
2023-01-02T18:44:45.321Z,101342.25
2023-01-02T18:49:47.532Z,101337.94
2023-01-02T18:54:58.903Z,101329.06
2023-01-02T19:00:16.013Z,101331.59
2023-01-02T19:05:44.106Z,101334.78
2023-01-02T19:10:51.378Z,101335.13
2023-01-02T19:16:13.564Z,101332.44
2023-01-02T19:21:17.415Z,101333.75
2023-01-02T19:26:24.977Z,101339.34
2023-01-02T19:31:45.959Z,101344.78
2023-01-02T19:36:53.807Z,101342.06
2023-01-02T19:42:14.845Z,101334.25
2023-01-02T19:47:18.436Z,101334.97
2023-01-02T19:52:23.307Z,101349.19
2023-01-02T19:57:26.098Z,101349.25
2023-01-02T20:02:28.819Z,101351.63
2023-01-02T20:07:31.670Z,101349.56
2023-01-02T20:12:42.721Z,101356.00
2023-01-02T20:17:45.783Z,101353.25
2023-01-02T20:22:51.581Z,101358.56
2023-01-02T20:27:55.927Z,101355.47
2023-01-02T20:32:58.158Z,101365.06
2023-01-02T20:38:00.374Z,101354.94
2023-01-02T20:43:02.783Z,101358.69
2023-01-02T20:48:05.462Z,101362.37
2023-01-02T20:53:07.744Z,101361.06
2023-01-02T20:58:10.074Z,101356.69
2023-01-02T21:03:12.457Z,101355.28
2023-01-02T21:08:14.823Z,101348.69
2023-01-02T21:13:16.972Z,101353.75
2023-01-02T21:18:20.632Z,101358.25
2023-01-02T21:23:24.769Z,101363.94
2023-01-02T21:28:27.469Z,101362.16
2023-01-02T21:33:30.663Z,101362.72
2023-01-02T21:38:33.966Z,101363.56
2023-01-02T21:43:36.501Z,101356.31
2023-01-02T21:48:39.093Z,101375.75
2023-01-02T21:53:41.285Z,101378.72
2023-01-02T21:58:43.476Z,101380.84
2023-01-02T22:03:45.691Z,101383.44
2023-01-02T22:08:47.899Z,101373.66
2023-01-02T22:13:50.121Z,101383.06
2023-01-02T22:18:52.333Z,101375.06
2023-01-02T22:23:54.530Z,101378.50
2023-01-02T22:28:57.198Z,101381.53
2023-01-02T22:34:00.569Z,101377.62
2023-01-02T22:44:28.892Z,101383.44
2023-01-02T22:49:34.953Z,101374.44
2023-01-02T22:54:37.174Z,101368.75
2023-01-02T22:59:40.944Z,101370.00
2023-01-02T23:04:43.669Z,101379.37
2023-01-02T23:09:46.190Z,101375.81
2023-01-02T23:14:48.362Z,101368.31
2023-01-02T23:19:50.744Z,101369.37
2023-01-02T23:24:52.966Z,101375.91
2023-01-02T23:29:55.103Z,101375.44
2023-01-02T23:34:57.260Z,101371.59
2023-01-02T23:39:59.475Z,101366.59
2023-01-02T23:45:02.850Z,101375.06
2023-01-02T23:50:06.621Z,101366.75
2023-01-02T23:55:09.249Z,101370.13
